createdAt,value
2019-04-25T00:02:01.818Z,12.30
2019-04-25T00:07:08.534Z,12.30
2019-04-25T00:12:14.699Z,12.20
2019-04-25T00:17:23.063Z,12.00
2019-04-25T00:22:51.517Z,12.00
2019-04-25T00:27:57.040Z,11.90
2019-04-25T00:33:02.351Z,11.90
2019-04-25T00:38:07.818Z,11.40
2019-04-25T00:43:13.183Z,11.20
2019-04-25T00:48:18.493Z,11.00
2019-04-25T00:53:23.805Z,10.80
2019-04-25T00:58:54.607Z,10.90
2019-04-25T01:04:02.326Z,11.00
2019-04-25T01:09:12.461Z,11.00
2019-04-25T01:14:18.051Z,11.10
2019-04-25T01:19:23.503Z,10.70
2019-04-25T01:24:38.584Z,10.20
2019-04-25T01:29:44.525Z,10.40
2019-04-25T01:34:58.943Z,10.20
2019-04-25T01:40:15.232Z,10.30
2019-04-25T01:45:23.949Z,10.10
2019-04-25T01:50:29.284Z,9.90
2019-04-25T01:55:34.645Z,9.90
2019-04-25T02:00:44.958Z,9.80
2019-04-25T02:05:51.306Z,9.90
2019-04-25T02:11:15.860Z,9.80
2019-04-25T02:16:40.203Z,9.80
2019-04-25T02:21:45.496Z,9.50
2019-04-25T02:26:50.787Z,9.50
2019-04-25T02:31:59.186Z,9.40
2019-04-25T02:37:08.768Z,9.40
2019-04-25T02:42:10.128Z,9.30
2019-04-25T02:47:44.165Z,9.20
2019-04-25T02:52:56.800Z,9.40
2019-04-25T02:58:04.866Z,9.20
2019-04-25T03:03:09.137Z,9.20
2019-04-25T03:08:14.462Z,9.00
2019-04-25T03:13:19.935Z,8.80
2019-04-25T03:18:26.827Z,8.60
2019-04-25T03:23:42.429Z,8.60
2019-04-25T03:28:46.261Z,8.60
2019-04-25T03:33:51.581Z,8.70
2019-04-25T03:38:56.911Z,8.80
2019-04-25T03:44:04.541Z,8.60
2019-04-25T03:49:11.700Z,8.60
2019-04-25T03:54:17.192Z,8.50
2019-04-25T03:59:23.653Z,8.50
2019-04-25T04:04:29.656Z,8.70
2019-04-25T04:09:34.971Z,8.80
2019-04-25T04:14:40.287Z,8.70
2019-04-25T04:19:55.543Z,8.60
2019-04-25T04:25:01.607Z,8.50
2019-04-25T04:30:08.018Z,8.50
2019-04-25T04:35:15.834Z,8.50
2019-04-25T04:40:21.416Z,8.50
2019-04-25T04:45:26.752Z,8.70
2019-04-25T04:50:33.664Z,8.90
2019-04-25T04:55:40.172Z,9.10
2019-04-25T05:00:45.655Z,9.10
2019-04-25T05:06:07.491Z,9.40
2019-04-25T05:11:15.215Z,9.50
2019-04-25T05:16:19.891Z,9.70
2019-04-25T05:21:25.296Z,9.90
2019-04-25T05:26:30.798Z,10.10
2019-04-25T05:31:45.583Z,10.60
2019-04-25T05:36:53.876Z,10.80
2019-04-25T05:42:16.269Z,11.30
2019-04-25T05:47:23.101Z,11.10
2019-04-25T05:52:28.644Z,11.30
2019-04-25T05:57:45.143Z,11.70
2019-04-25T06:02:40.967Z,12.40
2019-04-25T06:07:46.278Z,13.00
2019-04-25T06:12:57.799Z,13.30
2019-04-25T06:18:28.307Z,13.00
2019-04-25T06:24:07.592Z,14.30
2019-04-25T06:29:13.401Z,15.00
2019-04-25T06:34:19.849Z,14.60
2019-04-25T06:39:26.382Z,15.50
2019-04-25T06:44:39.588Z,16.60
2019-04-25T06:49:44.914Z,16.70
2019-04-25T06:54:50.223Z,15.50
2019-04-25T06:59:55.546Z,16.70
2019-04-25T07:05:00.933Z,17.20
2019-04-25T07:10:06.757Z,17.50
2019-04-25T07:15:13.806Z,18.60
2019-04-25T07:20:20.846Z,18.20
2019-04-25T07:25:28.603Z,18.10
2019-04-25T07:30:55.624Z,18.40
2019-04-25T07:36:00.941Z,18.70
2019-04-25T07:41:07.345Z,18.80
2019-04-25T07:46:13.469Z,19.50
2019-04-25T07:51:18.978Z,20.10
2019-04-25T07:56:24.407Z,20.00
2019-04-25T08:01:31.087Z,20.20
2019-04-25T08:06:36.515Z,20.50
2019-04-25T08:11:43.381Z,20.50
2019-04-25T08:16:51.784Z,20.40
2019-04-25T08:21:58.500Z,20.50
2019-04-25T08:27:03.927Z,20.30
2019-04-25T08:32:09.249Z,20.70
2019-04-25T08:37:19.149Z,20.60
2019-04-25T08:42:24.249Z,20.70
2019-04-25T08:47:30.447Z,21.30
2019-04-25T08:52:37.799Z,21.50
2019-04-25T08:57:58.832Z,22.00
2019-04-25T09:03:08.631Z,22.40
2019-04-25T09:08:14.318Z,22.00
2019-04-25T09:13:19.663Z,22.10
2019-04-25T09:18:25.078Z,21.80
2019-04-25T09:23:30.526Z,22.10
2019-04-25T09:28:38.066Z,22.20
2019-04-25T09:33:45.363Z,22.40
2019-04-25T09:38:53.832Z,22.50
2019-04-25T09:44:09.751Z,22.70
2019-04-25T09:49:21.729Z,23.10
2019-04-25T09:54:45.194Z,23.10
2019-04-25T09:59:53.213Z,23.60
2019-04-25T10:04:58.748Z,23.50
2019-04-25T10:10:05.637Z,23.80
2019-04-25T10:15:55.997Z,24.30
2019-04-25T10:21:01.503Z,24.50
2019-04-25T10:26:10.393Z,24.80
2019-04-25T10:31:15.743Z,25.10
2019-04-25T10:36:21.332Z,24.90
2019-04-25T10:41:26.651Z,25.30
2019-04-25T10:46:31.996Z,25.70
2019-04-25T10:51:37.341Z,25.30
2019-04-25T10:56:45.724Z,25.30
2019-04-25T11:01:50.067Z,25.60
2019-04-25T11:06:56.012Z,25.20
2019-04-25T11:12:01.449Z,25.40
2019-04-25T11:17:06.961Z,25.60
2019-04-25T11:22:13.450Z,25.90
2019-04-25T11:27:19.395Z,26.00
2019-04-25T11:32:27.664Z,26.50
2019-04-25T11:37:34.302Z,26.50
2019-04-25T11:42:43.209Z,27.00
2019-04-25T11:47:53.799Z,26.70
2019-04-25T11:53:00.988Z,26.70
2019-04-25T11:58:09.200Z,27.00
2019-04-25T12:03:17.080Z,27.30
2019-04-25T12:08:24.339Z,28.20
2019-04-25T12:13:30.990Z,28.90
2019-04-25T12:18:37.790Z,28.30
2019-04-25T12:23:46.391Z,28.40
2019-04-25T12:28:53.916Z,28.20
2019-04-25T12:34:00.206Z,28.50
2019-04-25T12:39:08.297Z,29.40
2019-04-25T12:44:35.533Z,29.90
2019-04-25T12:49:43.692Z,30.00
2019-04-25T12:54:54.032Z,30.10
2019-04-25T13:00:00.977Z,29.70
2019-04-25T13:05:08.458Z,28.90
2019-04-25T13:10:15.707Z,29.60
2019-04-25T13:15:21.083Z,29.60
2019-04-25T13:20:26.406Z,30.60
2019-04-25T13:25:31.756Z,30.10
2019-04-25T13:31:04.097Z,30.10
2019-04-25T13:36:06.195Z,29.20
2019-04-25T13:41:11.559Z,28.40
2019-04-25T13:46:20.094Z,29.40
2019-04-25T13:51:24.617Z,30.00
2019-04-25T13:56:30.695Z,30.50
2019-04-25T14:01:36.099Z,29.80
2019-04-25T14:06:42.862Z,30.80
2019-04-25T14:11:48.260Z,30.70
2019-04-25T14:17:18.399Z,29.50
2019-04-25T14:22:23.808Z,28.90
2019-04-25T14:27:30.108Z,29.50
2019-04-25T14:32:36.493Z,30.20
2019-04-25T14:37:43.964Z,29.60
2019-04-25T14:42:49.411Z,28.50
2019-04-25T14:47:54.723Z,26.90
2019-04-25T14:53:00.046Z,27.40
2019-04-25T14:58:07.851Z,28.20
2019-04-25T15:03:13.459Z,28.60
2019-04-25T15:08:18.779Z,28.60
2019-04-25T15:13:24.203Z,29.90
2019-04-25T15:18:29.646Z,29.60
2019-04-25T15:23:35.816Z,28.80
2019-04-25T15:28:41.271Z,29.50
2019-04-25T15:33:47.735Z,28.60
2019-04-25T15:38:59.180Z,26.90
2019-04-25T15:44:22.502Z,27.70
2019-04-25T15:49:28.567Z,27.70
2019-04-25T15:54:34.134Z,27.20
2019-04-25T15:59:39.600Z,27.50
2019-04-25T16:04:45.103Z,27.20
2019-04-25T16:09:50.613Z,27.00
2019-04-25T16:14:56.043Z,26.60
2019-04-25T16:20:02.336Z,26.30
2019-04-25T16:25:09.327Z,26.20
2019-04-25T16:30:15.821Z,25.90
2019-04-25T16:35:21.135Z,25.60
2019-04-25T16:40:27.508Z,25.10
2019-04-25T16:45:35.428Z,25.30
2019-04-25T16:50:40.783Z,25.30
2019-04-25T16:55:46.203Z,25.10
2019-04-25T17:01:12.268Z,24.90
2019-04-25T17:06:19.082Z,25.00
2019-04-25T17:11:24.497Z,24.90
2019-04-25T17:16:47.444Z,24.70
2019-04-25T17:21:52.922Z,24.60
2019-04-25T17:26:58.235Z,24.30
2019-04-25T17:32:50.869Z,24.10
2019-04-25T17:37:58.708Z,24.10
2019-04-25T17:43:11.387Z,23.90
2019-04-25T17:48:14.291Z,23.70
2019-04-25T17:53:19.937Z,23.50
2019-04-25T17:58:25.251Z,23.30
2019-04-25T18:03:30.670Z,23.10
2019-04-25T18:08:36.179Z,22.80
2019-04-25T18:13:42.480Z,22.60
2019-04-25T18:18:59.786Z,22.50
2019-04-25T18:24:27.242Z,22.30
2019-04-25T18:29:32.623Z,22.20
2019-04-25T18:34:44.412Z,22.00
2019-04-25T18:40:08.794Z,21.80
2019-04-25T18:45:16.844Z,21.70
2019-04-25T18:50:24.094Z,21.50
2019-04-25T18:55:57.771Z,21.40
2019-04-25T19:01:16.629Z,21.40
2019-04-25T19:06:22.151Z,21.30
2019-04-25T19:11:27.568Z,21.30
2019-04-25T19:16:32.912Z,21.40
2019-04-25T19:21:39.185Z,21.30
2019-04-25T19:26:46.089Z,21.30
2019-04-25T19:31:53.036Z,21.20
2019-04-25T19:36:58.724Z,21.10
2019-04-25T19:42:20.189Z,21.00
2019-04-25T19:47:25.520Z,20.80
2019-04-25T19:52:31.287Z,20.70
2019-04-25T19:57:38.164Z,20.70
2019-04-25T20:03:02.642Z,20.60
2019-04-25T20:08:34.298Z,20.60
2019-04-25T20:13:39.618Z,20.50
2019-04-25T20:18:45.689Z,20.40
2019-04-25T20:23:52.087Z,20.30
2019-04-25T20:28:57.776Z,20.30
2019-04-25T20:34:06.128Z,20.20
2019-04-25T20:39:10.551Z,20.10
2019-04-25T20:44:18.289Z,20.00
2019-04-25T20:49:23.846Z,19.90
2019-04-25T20:54:30.215Z,19.80
2019-04-25T20:59:35.577Z,19.70
2019-04-25T21:04:41.960Z,19.70
2019-04-25T21:09:48.978Z,19.70
2019-04-25T21:15:03.735Z,19.70
2019-04-25T21:20:09.457Z,19.70
2019-04-25T21:25:16.138Z,19.70
2019-04-25T21:30:21.505Z,19.60
2019-04-25T21:35:27.629Z,19.50
2019-04-25T21:41:07.807Z,19.50
2019-04-25T21:46:13.543Z,19.40
2019-04-25T21:51:31.346Z,19.40
2019-04-25T21:56:36.859Z,19.20
2019-04-25T22:01:43.609Z,19.10
2019-04-25T22:06:49.004Z,19.00
2019-04-25T22:11:54.771Z,18.90
2019-04-25T22:17:01.876Z,18.90
2019-04-25T22:22:07.560Z,18.70
2019-04-25T22:27:19.008Z,18.60
2019-04-25T22:32:43.287Z,18.30
2019-04-25T22:37:48.671Z,17.80
2019-04-25T22:42:54.028Z,17.40
2019-04-25T22:48:00.464Z,16.90
2019-04-25T22:53:06.499Z,16.70
2019-04-25T22:58:12.053Z,16.50
2019-04-25T23:03:27.665Z,16.20
2019-04-25T23:08:32.960Z,16.00
2019-04-25T23:13:38.312Z,15.90
2019-04-25T23:18:43.879Z,15.60
2019-04-25T23:23:49.288Z,15.30
2019-04-25T23:28:56.331Z,15.30
2019-04-25T23:34:01.661Z,15.30
2019-04-25T23:39:09.831Z,15.10
2019-04-25T23:44:16.172Z,15.30
2019-04-25T23:49:21.943Z,15.20
2019-04-25T23:54:28.035Z,15.40
2019-04-25T23:59:35.007Z,15.20
